Time;durP1;ratioP1;P1;durP2;ratioP2;P2;SDS_P1;SDS_P2;PMS_P1;PMS_P2;Temp;Humidity;BMP_temperature;BMP_pressure;BME280_temperature;BME280_humidity;BME280_pressure;Samples;Min_cycle;Max_cycle;Signal;HPM_P1;HPM_P2
2021/10/26 00:01:06;;;;;;;10.25;6.00;;;11.10;99.90;;;;;;4914389;29;20499;-83
2021/10/26 00:03:32;;;;;;;9.30;5.32;;;11.10;99.90;;;;;;4924421;29;20028;-83
2021/10/26 00:05:57;;;;;;;18.35;9.02;;;11.10;99.90;;;;;;4913701;29;20043;-83
2021/10/26 00:08:23;;;;;;;11.15;4.13;;;11.10;99.90;;;;;;4928348;29;20040;-83
2021/10/26 00:10:48;;;;;;;7.93;5.70;;;11.10;99.90;;;;;;4907458;29;20031;-83
2021/10/26 00:13:14;;;;;;;11.48;6.70;;;11.10;99.90;;;;;;4943150;28;20133;-83
2021/10/26 00:15:40;;;;;;;10.15;6.80;;;11.10;99.90;;;;;;4898852;29;20059;-83
2021/10/26 00:18:05;;;;;;;11.05;7.40;;;11.10;99.90;;;;;;4911633;29;20114;-82
2021/10/26 00:20:31;;;;;;;11.43;6.72;;;11.10;99.90;;;;;;4913006;29;20044;-83
2021/10/26 00:22:57;;;;;;;13.32;7.30;;;11.00;99.90;;;;;;4897840;29;20553;-84
2021/10/26 00:25:23;;;;;;;11.07;6.88;;;11.00;99.90;;;;;;4913358;28;20046;-83
2021/10/26 00:27:49;;;;;;;10.27;6.88;;;11.00;99.90;;;;;;4910647;29;20051;-83
2021/10/26 00:30:14;;;;;;;9.25;5.75;;;11.10;99.90;;;;;;4925710;29;20051;-83
2021/10/26 00:32:40;;;;;;;10.38;7.15;;;11.10;99.90;;;;;;4898000;29;20036;-83
2021/10/26 00:35:06;;;;;;;9.95;6.38;;;11.10;99.90;;;;;;4914882;29;20040;-83
2021/10/26 00:37:32;;;;;;;12.10;7.55;;;11.10;99.90;;;;;;4924521;29;20448;-83
2021/10/26 00:39:57;;;;;;;9.60;6.50;;;11.10;99.90;;;;;;4912267;29;20051;-83
2021/10/26 00:42:23;;;;;;;6.30;3.15;;;11.00;99.90;;;;;;4911081;29;20032;-83
2021/10/26 00:44:48;;;;;;;11.32;6.65;;;11.00;99.90;;;;;;4928681;29;20035;-83
2021/10/26 00:47:14;;;;;;;13.80;6.57;;;11.00;99.90;;;;;;4937322;28;20044;-84
2021/10/26 00:49:39;;;;;;;6.15;4.53;;;11.00;99.90;;;;;;4923506;29;20460;-83
2021/10/26 00:52:05;;;;;;;7.55;5.22;;;11.00;99.90;;;;;;4933404;28;20036;-83
2021/10/26 00:54:30;;;;;;;8.07;6.00;;;11.00;99.90;;;;;;4918921;29;20028;-83
2021/10/26 00:56:56;;;;;;;10.80;7.10;;;11.00;99.90;;;;;;4896957;29;20043;-83
2021/10/26 00:59:22;;;;;;;9.32;6.57;;;11.00;99.90;;;;;;4929417;29;20024;-83
2021/10/26 01:01:47;;;;;;;10.35;6.35;;;11.00;99.90;;;;;;4927777;29;20030;-83
2021/10/26 01:04:13;;;;;;;9.82;6.30;;;11.00;99.90;;;;;;4929948;28;20028;-83
2021/10/26 01:06:38;;;;;;;12.20;6.72;;;11.00;99.90;;;;;;4910349;29;20047;-83
2021/10/26 01:09:04;;;;;;;11.27;6.75;;;11.00;99.90;;;;;;4925725;29;20420;-83
2021/10/26 01:11:30;;;;;;;12.43;5.70;;;11.00;99.90;;;;;;4910550;29;20390;-83
2021/10/26 01:13:57;;;;;;;11.15;6.80;;;11.00;99.90;;;;;;4919954;29;20034;-83
2021/10/26 01:16:22;;;;;;;14.35;6.28;;;11.00;99.90;;;;;;4911966;28;20465;-83
2021/10/26 01:18:48;;;;;;;10.18;6.93;;;11.00;99.90;;;;;;4910849;29;20107;-83
2021/10/26 01:21:14;;;;;;;10.10;6.63;;;10.90;99.90;;;;;;4922882;29;20039;-83
2021/10/26 01:23:39;;;;;;;9.95;5.70;;;11.00;99.90;;;;;;4922567;29;20050;-83
2021/10/26 01:26:05;;;;;;;5.43;3.60;;;11.00;99.90;;;;;;4911784;29;20384;-83
2021/10/26 01:28:31;;;;;;;11.27;6.28;;;11.00;99.90;;;;;;4926188;29;20031;-83
2021/10/26 01:30:56;;;;;;;10.55;6.10;;;11.00;99.90;;;;;;4910633;29;20071;-82
2021/10/26 01:33:22;;;;;;;9.93;7.32;;;11.00;99.90;;;;;;4909508;28;20035;-83
2021/10/26 01:35:47;;;;;;;10.55;7.35;;;11.00;99.90;;;;;;4908139;29;20032;-83
2021/10/26 01:38:13;;;;;;;9.68;6.82;;;11.00;99.90;;;;;;4894943;29;20032;-83
2021/10/26 01:40:39;;;;;;;9.98;5.95;;;10.90;99.90;;;;;;4912092;29;20051;-83
2021/10/26 01:43:04;;;;;;;21.90;10.13;;;11.00;99.90;;;;;;4907164;29;20496;-84
2021/10/26 01:45:30;;;;;;;12.00;8.32;;;11.00;99.90;;;;;;4925561;29;20392;-84
2021/10/26 01:47:56;;;;;;;14.25;7.43;;;11.00;99.90;;;;;;4938261;28;20032;-84
2021/10/26 01:50:21;;;;;;;12.95;8.07;;;11.00;99.90;;;;;;4941432;28;20480;-84
2021/10/26 01:52:47;;;;;;;14.57;8.80;;;11.00;99.90;;;;;;4910043;29;20035;-84
2021/10/26 01:55:12;;;;;;;11.10;7.45;;;11.00;99.90;;;;;;4925786;29;20495;-84
2021/10/26 01:57:38;;;;;;;10.70;7.15;;;11.00;99.90;;;;;;4929277;28;20062;-84
2021/10/26 02:00:09;;;;;;;8.45;3.50;;;10.90;99.90;;;;;;4925719;29;20043;-84
2021/10/26 02:02:34;;;;;;;12.88;6.78;;;11.00;99.90;;;;;;4926038;28;20070;-83
2021/10/26 02:05:00;;;;;;;9.55;5.88;;;11.00;99.90;;;;;;4930738;29;20110;-83
2021/10/26 02:07:26;;;;;;;10.55;6.05;;;11.00;99.90;;;;;;4927917;29;20086;-83
2021/10/26 02:09:51;;;;;;;13.98;7.30;;;11.00;99.90;;;;;;4893024;29;20038;-83
2021/10/26 02:12:17;;;;;;;13.35;7.28;;;11.00;99.90;;;;;;4910715;28;20394;-83
2021/10/26 02:14:42;;;;;;;12.20;7.43;;;11.00;99.90;;;;;;4901010;29;20035;-83
2021/10/26 02:17:08;;;;;;;9.15;5.78;;;11.00;99.90;;;;;;4923219;29;20051;-83
2021/10/26 02:19:34;;;;;;;10.32;6.80;;;11.00;99.90;;;;;;4923733;29;20048;-83
2021/10/26 02:21:59;;;;;;;14.15;6.82;;;11.00;99.90;;;;;;4904960;29;20028;-83
2021/10/26 02:24:25;;;;;;;12.07;7.28;;;11.00;99.90;;;;;;4925052;28;20127;-83
2021/10/26 02:26:50;;;;;;;15.07;9.60;;;11.00;99.90;;;;;;4897639;29;20031;-83
2021/10/26 02:29:16;;;;;;;16.52;9.60;;;11.00;99.90;;;;;;4910710;29;20047;-83
2021/10/26 02:31:41;;;;;;;12.20;7.78;;;10.90;99.90;;;;;;4911481;29;20112;-83
2021/10/26 02:34:07;;;;;;;14.32;8.18;;;11.00;99.90;;;;;;4910644;29;20023;-83
2021/10/26 02:36:34;;;;;;;11.38;6.75;;;11.00;99.90;;;;;;4939602;28;21316;-83
2021/10/26 02:38:59;;;;;;;18.20;9.63;;;11.10;99.90;;;;;;4922905;29;20051;-83
2021/10/26 02:41:25;;;;;;;15.77;8.60;;;10.90;99.90;;;;;;4923952;29;20024;-83
2021/10/26 02:43:50;;;;;;;17.88;8.88;;;11.10;99.90;;;;;;4894955;29;20448;-83
2021/10/26 02:46:16;;;;;;;16.38;7.90;;;11.00;99.90;;;;;;4910025;29;20028;-82
2021/10/26 02:48:42;;;;;;;14.65;8.80;;;11.10;99.90;;;;;;4927347;29;20031;-83
2021/10/26 02:51:08;;;;;;;11.52;6.90;;;11.00;99.90;;;;;;4925684;29;20056;-83
2021/10/26 02:53:34;;;;;;;15.70;9.43;;;11.10;99.90;;;;;;4911590;29;20051;-83
2021/10/26 02:55:59;;;;;;;9.60;5.72;;;11.00;99.90;;;;;;4934261;28;20218;-83
2021/10/26 02:58:28;;;;;;;11.40;8.40;;;11.20;99.90;;;;;;4927414;29;20091;-83
2021/10/26 03:00:53;;;;;;;10.88;8.23;;;11.00;99.90;;;;;;4912788;28;20031;-84
2021/10/26 03:03:19;;;;;;;14.20;8.18;;;11.10;99.90;;;;;;4941070;29;20110;-83
2021/10/26 03:05:44;;;;;;;18.48;9.45;;;11.10;99.90;;;;;;4894577;29;20044;-83
2021/10/26 03:08:10;;;;;;;10.05;6.63;;;11.00;99.90;;;;;;4910310;29;20064;-84
2021/10/26 03:10:36;;;;;;;14.05;8.65;;;11.00;99.90;;;;;;4923418;29;20079;-83
2021/10/26 03:13:02;;;;;;;15.82;9.32;;;11.00;99.90;;;;;;4908045;29;20036;-84
2021/10/26 03:15:28;;;;;;;14.93;9.32;;;11.00;99.90;;;;;;4928102;28;20028;-84
2021/10/26 03:17:53;;;;;;;9.35;6.47;;;11.00;99.90;;;;;;4898023;29;20484;-83
2021/10/26 03:20:19;;;;;;;17.70;8.75;;;11.00;99.90;;;;;;4928772;28;20035;-83
2021/10/26 03:22:45;;;;;;;13.70;8.63;;;11.10;99.90;;;;;;4896120;29;20081;-83
2021/10/26 03:25:10;;;;;;;13.57;8.18;;;11.10;99.90;;;;;;4926175;29;20039;-83
2021/10/26 03:27:36;;;;;;;15.27;7.18;;;11.00;99.90;;;;;;4929748;29;20504;-83
2021/10/26 03:30:06;;;;;;;13.90;8.57;;;11.10;99.90;;;;;;4942313;28;20046;-83
2021/10/26 03:32:31;;;;;;;14.70;9.77;;;11.10;99.90;;;;;;4926850;29;20079;-83
2021/10/26 03:34:57;;;;;;;17.77;9.40;;;11.10;99.90;;;;;;4912472;28;20071;-83
2021/10/26 03:37:22;;;;;;;7.50;3.78;;;11.10;99.90;;;;;;4931190;29;20119;-83
2021/10/26 03:39:54;;;;;;;17.88;9.63;;;11.00;99.90;;;;;;4900692;29;20128;-84
2021/10/26 03:42:20;;;;;;;16.90;10.73;;;11.00;99.90;;;;;;4928946;29;20035;-83
2021/10/26 03:44:46;;;;;;;13.43;9.50;;;11.00;99.90;;;;;;4898430;29;20032;-83
2021/10/26 03:47:11;;;;;;;14.05;9.40;;;11.00;99.90;;;;;;4930809;29;20493;-83
2021/10/26 03:49:37;;;;;;;17.50;9.55;;;11.00;99.90;;;;;;4914108;29;20084;-84
2021/10/26 03:52:03;;;;;;;20.63;11.40;;;11.10;99.90;;;;;;4912777;29;20079;-84
2021/10/26 03:54:28;;;;;;;20.35;10.68;;;11.00;99.90;;;;;;4927264;29;20044;-83
2021/10/26 03:56:57;;;;;;;17.30;10.30;;;11.00;99.90;;;;;;4913174;29;20034;-84
2021/10/26 03:59:29;;;;;;;17.05;10.05;;;11.10;99.90;;;;;;4914822;28;20031;-83
2021/10/26 04:01:54;;;;;;;14.80;10.10;;;11.10;99.90;;;;;;4923552;29;20028;-83
2021/10/26 04:04:20;;;;;;;17.95;10.35;;;11.10;99.90;;;;;;4909943;29;20535;-83
2021/10/26 04:06:46;;;;;;;19.55;11.00;;;11.10;99.90;;;;;;4927118;29;20571;-83
2021/10/26 04:09:12;;;;;;;20.63;10.85;;;11.10;99.90;;;;;;4911833;29;20027;-83
2021/10/26 04:12:24;;;;;;;16.13;10.93;;;11.10;99.90;;;;;;4924210;29;20143;-83
2021/10/26 04:14:24;;;;;;;20.08;13.80;;;11.10;99.90;;;;;;4903133;28;20401;-83
2021/10/26 04:16:50;;;;;;;18.73;11.55;;;11.10;99.90;;;;;;4909318;29;20024;-83
2021/10/26 04:19:15;;;;;;;8.15;4.78;;;11.10;99.90;;;;;;4914436;29;20027;-83
2021/10/26 04:21:41;;;;;;;19.92;12.05;;;11.00;99.90;;;;;;4907067;29;20032;-83
2021/10/26 04:24:06;;;;;;;24.42;12.30;;;11.10;99.90;;;;;;4925034;29;20027;-82
2021/10/26 04:26:32;;;;;;;18.48;10.70;;;11.10;99.90;;;;;;4930753;28;20020;-83
2021/10/26 04:28:57;;;;;;;23.40;13.38;;;11.10;99.90;;;;;;4916011;29;20028;-83
2021/10/26 04:31:23;;;;;;;16.98;10.35;;;11.10;99.90;;;;;;4910786;29;20401;-83
2021/10/26 04:33:48;;;;;;;18.35;9.70;;;11.10;99.90;;;;;;4917671;29;20051;-83
2021/10/26 04:36:14;;;;;;;18.77;10.45;;;11.10;99.90;;;;;;4928721;29;20038;-82
2021/10/26 04:38:39;;;;;;;21.13;10.02;;;11.10;99.90;;;;;;4927035;29;20027;-83
2021/10/26 04:41:08;;;;;;;19.65;11.98;;;11.10;99.90;;;;;;4911911;28;20062;-83
2021/10/26 04:43:36;;;;;;;16.98;8.77;;;11.10;99.90;;;;;;4928278;29;20091;-83
2021/10/26 04:46:02;;;;;;;24.60;13.35;;;11.20;99.90;;;;;;4912543;29;20050;-84
2021/10/26 04:48:28;;;;;;;19.75;11.20;;;11.10;99.90;;;;;;4923976;29;20028;-84
2021/10/26 04:50:53;;;;;;;22.75;14.18;;;11.10;99.90;;;;;;4923596;29;20043;-83
2021/10/26 04:53:20;;;;;;;20.00;10.73;;;11.10;99.90;;;;;;4944046;28;20068;-84
2021/10/26 04:55:46;;;;;;;18.80;10.35;;;11.10;99.90;;;;;;4915037;29;20106;-82
2021/10/26 04:58:12;;;;;;;17.88;10.23;;;11.20;99.90;;;;;;4924494;29;20496;-83
2021/10/26 05:00:37;;;;;;;20.02;11.55;;;11.20;99.90;;;;;;4923310;29;20028;-83
2021/10/26 05:03:03;;;;;;;20.55;11.43;;;11.20;99.90;;;;;;4925579;29;20031;-83
2021/10/26 05:05:28;;;;;;;23.00;13.07;;;11.20;99.90;;;;;;4921549;29;20036;-83
2021/10/26 05:07:54;;;;;;;9.38;5.00;;;11.20;99.90;;;;;;4940188;28;20028;-83
2021/10/26 05:10:19;;;;;;;19.00;11.93;;;11.10;99.90;;;;;;4927944;29;20046;-83
2021/10/26 05:12:45;;;;;;;21.30;12.05;;;11.20;99.90;;;;;;4912363;29;20035;-83
2021/10/26 05:15:11;;;;;;;16.98;11.68;;;11.20;99.90;;;;;;4894914;29;20396;-84
2021/10/26 05:17:39;;;;;;;13.38;7.05;;;11.20;99.90;;;;;;4926029;29;20122;-83
2021/10/26 05:20:06;;;;;;;19.50;9.73;;;11.20;99.90;;;;;;4938881;28;20040;-83
2021/10/26 05:22:32;;;;;;;13.02;6.82;;;11.20;99.90;;;;;;4927078;29;20027;-83
2021/10/26 05:24:58;;;;;;;21.25;10.60;;;11.20;99.90;;;;;;4911141;29;20028;-84
2021/10/26 05:27:23;;;;;;;17.95;10.32;;;11.20;99.90;;;;;;4911514;29;20047;-83
2021/10/26 05:29:49;;;;;;;13.68;8.45;;;11.20;99.90;;;;;;4908592;29;20027;-83
2021/10/26 05:32:15;;;;;;;20.02;10.90;;;11.20;99.90;;;;;;4909975;29;20032;-85
2021/10/26 05:34:40;;;;;;;17.38;10.00;;;11.20;99.90;;;;;;4932643;28;20463;-85
2021/10/26 05:37:06;;;;;;;16.63;8.98;;;11.10;99.90;;;;;;4918338;29;20032;-86
2021/10/26 05:39:32;;;;;;;22.27;10.75;;;11.10;99.90;;;;;;4926893;29;20063;-86
2021/10/26 05:41:58;;;;;;;24.50;10.82;;;11.20;99.90;;;;;;4927883;29;20511;-86
2021/10/26 05:44:24;;;;;;;21.10;11.18;;;11.20;99.90;;;;;;4927308;28;20028;-84
2021/10/26 05:46:49;;;;;;;18.58;9.82;;;11.20;99.90;;;;;;4925536;29;20064;-86
2021/10/26 05:49:15;;;;;;;17.88;10.07;;;11.20;99.90;;;;;;4927029;29;20059;-85
2021/10/26 05:51:41;;;;;;;17.00;10.32;;;11.20;99.90;;;;;;4897630;29;20052;-85
2021/10/26 05:54:06;;;;;;;21.83;12.80;;;11.20;99.90;;;;;;4927698;29;20440;-84
2021/10/26 05:56:32;;;;;;;18.83;9.52;;;11.20;99.90;;;;;;4927927;29;20088;-86
2021/10/26 05:58:57;;;;;;;15.85;8.82;;;11.20;99.90;;;;;;4925297;28;20032;-84
2021/10/26 06:01:23;;;;;;;16.05;10.20;;;11.10;99.90;;;;;;4939577;29;20122;-85
2021/10/26 06:03:49;;;;;;;21.08;10.52;;;11.30;99.90;;;;;;4924721;29;20516;-84
2021/10/26 06:06:15;;;;;;;18.33;9.40;;;11.20;99.90;;;;;;4925867;29;20043;-85
2021/10/26 06:08:41;;;;;;;17.48;8.52;;;11.20;99.90;;;;;;4926765;29;20090;-85
2021/10/26 06:11:09;;;;;;;18.25;10.57;;;11.10;99.90;;;;;;4908982;28;20099;-86
2021/10/26 06:13:46;;;;;;;23.73;12.80;;;11.20;99.90;;;;;;4886366;29;20043;-85
2021/10/26 06:16:12;;;;;;;14.80;8.07;;;11.20;99.90;;;;;;4926342;29;20079;-84
2021/10/26 06:18:38;;;;;;;20.90;11.13;;;11.20;99.90;;;;;;4903316;29;20500;-84
2021/10/26 06:21:03;;;;;;;18.23;10.75;;;11.10;99.90;;;;;;4908014;28;20519;-83
2021/10/26 06:23:32;;;;;;;14.52;7.57;;;11.20;99.90;;;;;;4922752;28;20563;-83
2021/10/26 06:25:59;;;;;;;14.20;9.35;;;11.10;99.90;;;;;;4922180;29;20043;-84
2021/10/26 06:28:26;;;;;;;19.65;10.48;;;11.20;99.90;;;;;;4927390;29;20041;-84
2021/10/26 06:30:51;;;;;;;16.15;9.50;;;11.20;99.90;;;;;;4910719;29;20079;-84
2021/10/26 06:33:17;;;;;;;17.05;8.57;;;11.20;99.90;;;;;;4940081;28;20056;-84
2021/10/26 06:35:42;;;;;;;23.90;10.13;;;11.20;99.90;;;;;;4896287;28;20059;-84
2021/10/26 06:38:08;;;;;;;22.45;9.65;;;11.20;99.90;;;;;;4920696;28;20035;-84
2021/10/26 06:40:34;;;;;;;15.63;6.25;;;11.20;99.90;;;;;;4925844;29;20055;-85
2021/10/26 06:43:00;;;;;;;19.15;10.02;;;11.20;99.90;;;;;;4913000;29;20130;-84
2021/10/26 06:45:25;;;;;;;14.82;9.60;;;11.10;99.90;;;;;;4924318;29;20538;-84
2021/10/26 06:47:51;;;;;;;18.42;9.82;;;11.20;99.90;;;;;;4898847;29;20035;-85
2021/10/26 06:50:17;;;;;;;19.90;9.50;;;11.00;99.90;;;;;;4925339;28;20066;-84
2021/10/26 06:52:42;;;;;;;14.13;7.35;;;11.00;99.90;;;;;;4909186;29;20028;-84
2021/10/26 06:55:08;;;;;;;14.07;9.38;;;11.00;99.90;;;;;;4906146;29;20046;-84
2021/10/26 06:57:34;;;;;;;13.55;9.00;;;11.10;99.90;;;;;;4938037;29;20488;-84
2021/10/26 07:00:00;;;;;;;13.18;6.80;;;11.10;99.90;;;;;;4938853;28;20090;-84
2021/10/26 07:02:25;;;;;;;14.43;8.35;;;11.10;99.90;;;;;;4908997;29;20025;-84
2021/10/26 07:04:52;;;;;;;16.08;7.63;;;11.10;99.90;;;;;;4931315;29;20086;-84
2021/10/26 07:07:17;;;;;;;14.13;5.03;;;11.10;99.90;;;;;;4925027;28;20055;-84
2021/10/26 07:09:43;;;;;;;18.35;10.10;;;11.10;99.90;;;;;;4916644;29;20055;-84
2021/10/26 07:12:08;;;;;;;16.30;9.90;;;11.20;99.90;;;;;;4931789;29;20048;-84
2021/10/26 07:14:34;;;;;;;18.48;9.55;;;11.20;99.90;;;;;;4905340;29;20031;-84
2021/10/26 07:17:01;;;;;;;19.23;10.50;;;11.20;99.90;;;;;;4924449;29;20071;-84
2021/10/26 07:19:26;;;;;;;17.42;10.10;;;11.30;99.90;;;;;;4929188;28;20067;-84
2021/10/26 07:21:52;;;;;;;19.80;8.05;;;11.30;99.90;;;;;;4896843;29;20120;-84
2021/10/26 07:24:18;;;;;;;17.52;9.20;;;11.30;99.90;;;;;;4927587;29;20114;-84
2021/10/26 07:26:44;;;;;;;14.10;7.38;;;11.30;99.90;;;;;;4912022;29;20035;-84
2021/10/26 07:29:09;;;;;;;21.50;10.52;;;11.40;99.90;;;;;;4948036;28;20084;-84
2021/10/26 07:31:35;;;;;;;17.17;9.15;;;11.40;99.90;;;;;;4916336;29;20099;-83
2021/10/26 07:34:01;;;;;;;17.55;8.20;;;11.40;99.90;;;;;;4916840;29;20442;-83
2021/10/26 07:36:32;;;;;;;18.23;9.07;;;11.40;99.90;;;;;;4936874;28;20429;-84
2021/10/26 07:38:59;;;;;;;20.70;9.30;;;11.50;99.90;;;;;;4917798;29;20408;-85
2021/10/26 07:41:25;;;;;;;20.55;10.15;;;11.50;99.90;;;;;;4932467;28;20028;-85
2021/10/26 07:43:51;;;;;;;12.63;5.32;;;11.50;99.90;;;;;;4917529;29;20027;-84
2021/10/26 07:46:16;;;;;;;19.98;9.63;;;11.50;99.90;;;;;;4932039;29;20602;-85
2021/10/26 07:48:42;;;;;;;17.65;10.15;;;11.50;99.90;;;;;;4917167;29;20495;-84
2021/10/26 07:51:07;;;;;;;17.00;9.70;;;11.50;99.90;;;;;;4899469;29;20071;-84
2021/10/26 07:53:33;;;;;;;14.65;7.35;;;11.50;99.90;;;;;;4898015;28;20035;-84
2021/10/26 07:56:01;;;;;;;16.42;7.13;;;11.60;99.90;;;;;;4916220;29;20114;-87
2021/10/26 07:58:27;;;;;;;15.95;8.68;;;11.60;99.90;;;;;;4918700;29;20051;-85
2021/10/26 08:00:53;;;;;;;16.80;9.07;;;11.70;99.90;;;;;;4918355;29;20529;-86
2021/10/26 08:03:18;;;;;;;5.05;3.88;;;11.70;99.90;;;;;;4936769;28;20039;-86
2021/10/26 08:05:44;;;;;;;16.15;7.53;;;11.70;99.90;;;;;;4915386;29;20051;-85
2021/10/26 08:08:12;;;;;;;17.33;9.07;;;11.70;99.90;;;;;;4937016;28;20040;-86
2021/10/26 08:10:38;;;;;;;14.90;8.95;;;11.80;99.90;;;;;;4930409;29;20042;-87
2021/10/26 08:13:06;;;;;;;15.90;8.18;;;11.80;99.90;;;;;;4929987;29;20039;-87
2021/10/26 08:15:31;;;;;;;11.63;6.90;;;11.90;99.90;;;;;;4928761;29;20563;-86
2021/10/26 08:17:57;;;;;;;12.65;8.60;;;11.80;99.90;;;;;;4944529;28;20052;-86
2021/10/26 08:20:23;;;;;;;14.23;7.55;;;11.90;99.90;;;;;;4942463;28;20047;-87
2021/10/26 08:22:49;;;;;;;13.73;7.70;;;12.00;99.90;;;;;;4933422;28;20038;-86
2021/10/26 08:25:21;;;;;;;17.40;8.75;;;12.00;99.90;;;;;;4912866;29;20082;-86
2021/10/26 08:27:59;;;;;;;12.45;6.88;;;12.00;99.90;;;;;;4912256;29;20542;-86
2021/10/26 08:35:38;;;;;;;7.68;5.25;;;12.10;99.90;;;;;;4942904;28;20042;-86
2021/10/26 08:38:05;;;;;;;20.52;7.95;;;12.20;99.90;;;;;;4921470;29;20538;-86
2021/10/26 08:40:33;;;;;;;19.67;9.10;;;12.20;99.90;;;;;;4926331;29;20028;-86
2021/10/26 08:43:03;;;;;;;20.08;7.75;;;12.20;99.90;;;;;;4898796;29;20056;-87
2021/10/26 08:45:28;;;;;;;11.68;6.18;;;12.30;99.90;;;;;;4926319;29;20036;-85
2021/10/26 08:47:54;;;;;;;11.25;6.93;;;12.40;99.90;;;;;;4941510;28;20036;-86
2021/10/26 08:50:20;;;;;;;12.38;7.35;;;12.50;99.90;;;;;;4914942;29;20475;-85
2021/10/26 08:52:46;;;;;;;10.43;7.38;;;12.40;99.90;;;;;;4905459;28;20114;-86
2021/10/26 08:55:13;;;;;;;18.98;8.35;;;12.30;99.90;;;;;;4911663;29;20032;-86
2021/10/26 08:57:39;;;;;;;14.07;7.13;;;12.40;99.90;;;;;;4943226;28;20038;-84
2021/10/26 09:00:06;;;;;;;8.18;5.75;;;12.50;99.90;;;;;;4921554;29;20040;-84
2021/10/26 09:02:41;;;;;;;12.02;6.97;;;12.60;99.90;;;;;;4929694;29;20199;-83
2021/10/26 09:05:11;;;;;;;22.80;7.10;;;12.60;99.90;;;;;;4925569;29;20125;-83
2021/10/26 09:07:37;;;;;;;16.17;6.85;;;12.50;99.90;;;;;;4913240;29;20635;-83
2021/10/26 09:10:13;;;;;;;14.10;7.10;;;12.70;99.90;;;;;;4895784;29;20066;-82
2021/10/26 09:17:54;;;;;;;11.82;6.05;;;12.70;99.90;;;;;;4926166;29;20047;-83
2021/10/26 09:20:22;;;;;;;14.98;7.32;;;12.70;99.90;;;;;;4928538;29;20031;-83
2021/10/26 09:22:50;;;;;;;23.45;7.40;;;12.80;99.90;;;;;;4909308;29;20393;-83
2021/10/26 09:25:16;;;;;;;13.82;6.50;;;12.90;99.90;;;;;;4913954;29;20062;-82
2021/10/26 09:27:43;;;;;;;9.77;6.13;;;12.80;99.90;;;;;;4896140;29;20531;-83
2021/10/26 09:30:11;;;;;;;12.05;6.43;;;12.80;99.90;;;;;;4910430;29;20044;-83
2021/10/26 09:32:47;;;;;;;10.00;3.95;;;12.80;99.90;;;;;;4924408;29;20644;-83
2021/10/26 09:35:17;;;;;;;12.80;5.82;;;12.80;99.90;;;;;;4927309;29;20402;-83
2021/10/26 09:37:45;;;;;;;10.77;6.22;;;12.90;99.90;;;;;;4895803;28;20371;-83
2021/10/26 09:40:11;;;;;;;15.65;7.68;;;13.00;99.90;;;;;;4926049;29;20335;-83
2021/10/26 09:42:50;;;;;;;10.60;5.53;;;13.10;99.90;;;;;;4908303;29;20032;-83
2021/10/26 09:45:24;;;;;;;10.73;5.65;;;13.20;99.90;;;;;;4911538;29;20146;-83
2021/10/26 09:47:52;;;;;;;10.88;5.35;;;13.10;99.90;;;;;;4925700;28;20040;-83
2021/10/26 09:50:17;;;;;;;12.73;4.88;;;13.30;99.90;;;;;;4910519;29;20464;-83
2021/10/26 09:52:45;;;;;;;11.52;5.25;;;13.40;99.90;;;;;;4924674;28;20110;-83
2021/10/26 09:58:10;;;;;;;9.25;5.00;;;13.70;99.90;;;;;;4939851;28;20063;-82
2021/10/26 10:00:38;;;;;;;10.75;4.65;;;13.80;99.90;;;;;;4926176;28;20067;-82
2021/10/26 10:03:23;;;;;;;11.93;4.97;;;13.80;99.90;;;;;;4913084;29;20527;-82
2021/10/26 10:05:53;;;;;;;13.65;4.38;;;13.70;99.90;;;;;;4907970;29;20067;-82
2021/10/26 10:08:28;;;;;;;9.43;4.95;;;14.00;99.90;;;;;;4925444;29;20039;-82
2021/10/26 10:10:56;;;;;;;10.10;3.88;;;13.80;99.90;;;;;;4910741;29;20046;-82
2021/10/26 10:13:22;;;;;;;10.80;4.13;;;13.90;99.90;;;;;;4896573;29;20047;-82
2021/10/26 10:15:48;;;;;;;11.50;4.18;;;14.00;99.90;;;;;;4892684;29;20033;-81
2021/10/26 10:18:16;;;;;;;12.02;4.13;;;13.90;99.90;;;;;;4923485;29;20039;-82
2021/10/26 10:20:43;;;;;;;7.82;3.53;;;14.20;99.90;;;;;;4915507;29;20143;-81
2021/10/26 10:23:09;;;;;;;8.35;3.85;;;14.00;99.90;;;;;;4898908;29;20102;-82
2021/10/26 10:25:34;;;;;;;13.52;4.03;;;14.00;99.90;;;;;;4940060;28;20028;-82
2021/10/26 10:28:01;;;;;;;7.07;3.40;;;14.20;99.90;;;;;;4906652;29;20031;-82
2021/10/26 10:30:27;;;;;;;10.63;3.83;;;14.30;99.90;;;;;;4904913;29;20044;-82
2021/10/26 10:32:53;;;;;;;15.63;3.13;;;14.40;99.90;;;;;;4917833;29;20028;-82
2021/10/26 10:35:19;;;;;;;8.48;3.17;;;14.00;99.90;;;;;;4903043;29;20047;-82
2021/10/26 10:37:48;;;;;;;10.15;3.42;;;14.10;99.90;;;;;;4895308;29;20039;-82
2021/10/26 10:40:14;;;;;;;14.40;3.58;;;14.20;99.90;;;;;;4924739;28;20122;-82
2021/10/26 10:42:48;;;;;;;9.75;2.97;;;14.30;99.90;;;;;;4926838;29;20118;-82
2021/10/26 10:45:23;;;;;;;3.97;2.42;;;14.70;99.90;;;;;;4911890;29;20067;-82
2021/10/26 10:47:49;;;;;;;10.95;3.28;;;14.60;99.90;;;;;;4907582;29;20032;-82
2021/10/26 10:50:27;;;;;;;8.27;2.95;;;14.70;99.90;;;;;;4908375;28;20083;-83
2021/10/26 10:53:09;;;;;;;3.35;2.05;;;14.60;99.90;;;;;;4930040;29;20028;-82
2021/10/26 10:55:36;;;;;;;4.97;2.60;;;14.50;99.90;;;;;;4912131;29;21919;-82
2021/10/26 10:58:23;;;;;;;11.13;3.25;;;14.50;99.90;;;;;;4908786;29;20028;-82
2021/10/26 11:00:49;;;;;;;11.65;3.70;;;14.70;99.90;;;;;;4926825;29;20036;-82
2021/10/26 11:03:31;;;;;;;7.50;2.33;;;14.90;99.90;;;;;;4940950;28;20047;-82
2021/10/26 11:05:56;;;;;;;10.10;2.53;;;15.10;99.90;;;;;;4923720;29;20121;-82
2021/10/26 11:08:41;;;;;;;6.70;3.00;;;15.20;99.90;;;;;;4909391;29;20039;-82
2021/10/26 11:11:07;;;;;;;6.45;2.03;;;15.10;99.90;;;;;;4924713;29;20190;-83
2021/10/26 11:13:35;;;;;;;9.52;3.03;;;15.20;99.90;;;;;;4925823;29;20123;-82
2021/10/26 11:16:06;;;;;;;9.35;2.55;;;15.50;99.90;;;;;;4908765;29;20040;-82
2021/10/26 11:18:44;;;;;;;9.30;2.72;;;15.70;99.90;;;;;;4925286;29;20388;-82
2021/10/26 11:21:30;;;;;;;19.90;2.85;;;15.30;99.90;;;;;;4925797;29;20040;-82
2021/10/26 11:23:59;;;;;;;6.10;2.53;;;15.60;99.90;;;;;;4923657;29;20510;-82
2021/10/26 11:26:50;;;;;;;9.65;2.50;;;15.60;99.90;;;;;;4940424;28;20126;-83
2021/10/26 11:29:27;;;;;;;9.68;2.40;;;15.30;99.90;;;;;;4924481;28;20507;-82
2021/10/26 11:31:53;;;;;;;4.95;2.00;;;15.30;99.90;;;;;;4911951;29;20032;-82
2021/10/26 11:34:26;;;;;;;7.25;2.38;;;15.30;99.90;;;;;;4905819;29;20103;-82
2021/10/26 11:37:06;;;;;;;8.68;2.30;;;15.30;99.90;;;;;;4894013;29;20473;-82
2021/10/26 11:39:32;;;;;;;8.18;2.17;;;15.40;99.90;;;;;;4924584;29;20043;-82
2021/10/26 11:41:59;;;;;;;7.43;2.08;;;15.80;99.90;;;;;;4905999;28;20467;-82
2021/10/26 11:44:25;;;;;;;6.57;2.03;;;15.80;99.90;;;;;;4910596;29;20031;-82
2021/10/26 11:46:51;;;;;;;5.53;1.70;;;15.80;99.90;;;;;;4910245;29;20333;-82
2021/10/26 11:49:21;;;;;;;6.22;2.58;;;15.90;99.90;;;;;;4911973;29;20028;-82
2021/10/26 11:51:52;;;;;;;5.22;1.92;;;16.10;99.90;;;;;;4909718;29;20111;-81
2021/10/26 11:54:25;;;;;;;3.30;1.15;;;15.80;99.90;;;;;;4946451;28;20020;-82
2021/10/26 11:56:55;;;;;;;6.38;2.00;;;16.10;99.90;;;;;;4913571;29;20032;-82
2021/10/26 11:59:26;;;;;;;6.13;2.30;;;16.00;99.90;;;;;;4926374;29;20031;-82
2021/10/26 12:01:54;;;;;;;6.18;1.80;;;16.10;99.90;;;;;;4930152;28;20532;-82
2021/10/26 12:04:20;;;;;;;5.00;1.42;;;16.20;99.90;;;;;;4941907;28;20028;-82
2021/10/26 12:06:47;;;;;;;4.50;1.83;;;16.10;99.90;;;;;;4923960;28;20148;-81
2021/10/26 12:09:14;;;;;;;6.53;2.03;;;16.10;99.90;;;;;;4912805;29;20187;-82
2021/10/26 12:11:50;;;;;;;5.78;2.60;;;16.20;99.90;;;;;;4913406;29;20043;-82
2021/10/26 12:14:35;;;;;;;3.13;1.27;;;16.30;99.90;;;;;;4911193;29;20032;-81
2021/10/26 12:17:22;;;;;;;5.97;1.80;;;16.30;99.90;;;;;;4911472;28;20491;-80
2021/10/26 12:19:52;;;;;;;3.10;1.30;;;16.40;99.90;;;;;;4593516;28;9999951;-81
2021/10/26 12:22:31;;;;;;;6.15;2.40;;;16.40;99.90;;;;;;4941509;28;20024;-82
2021/10/26 12:25:27;;;;;;;2.63;1.42;;;16.50;99.90;;;;;;4929165;29;20035;-81
2021/10/26 12:28:05;;;;;;;8.10;2.47;;;16.60;99.50;;;;;;4919847;28;20086;-81
2021/10/26 12:30:35;;;;;;;7.00;1.98;;;16.50;99.30;;;;;;4909866;29;20445;-81
2021/10/26 12:33:08;;;;;;;5.72;1.33;;;16.50;98.80;;;;;;4926427;29;20564;-81
2021/10/26 12:35:40;;;;;;;4.30;1.52;;;16.60;98.30;;;;;;4920034;29;20110;-81
2021/10/26 12:38:17;;;;;;;5.32;2.08;;;16.60;98.50;;;;;;4913411;29;20035;-80
2021/10/26 12:40:46;;;;;;;3.10;1.23;;;16.70;98.60;;;;;;4942044;28;20039;-81
2021/10/26 12:43:13;;;;;;;6.00;1.85;;;16.70;98.50;;;;;;4912553;29;20089;-81
2021/10/26 12:45:40;;;;;;;8.15;2.13;;;16.80;97.80;;;;;;4910509;29;20039;-80
2021/10/26 12:48:10;;;;;;;9.77;2.00;;;16.80;98.30;;;;;;4931352;29;20392;-81
2021/10/26 12:50:52;;;;;;;3.90;1.15;;;17.00;98.50;;;;;;4927320;29;20123;-81
2021/10/26 12:53:27;;;;;;;2.83;1.40;;;17.10;97.30;;;;;;4940186;28;20036;-81